sensor_id;sensor_type;location;lat;lon;timestamp;P1;durP1;ratioP1;P2;durP2;ratioP2
23155;SDS011;11746;50.876;4.246;2022-10-16T00:00:38;1.25;;;0.40;;
23155;SDS011;11746;50.876;4.246;2022-10-16T00:03:05;1.30;;;0.80;;
23155;SDS011;11746;50.876;4.246;2022-10-16T00:05:32;2.10;;;0.70;;
23155;SDS011;11746;50.876;4.246;2022-10-16T00:08:02;1.00;;;0.60;;
23155;SDS011;11746;50.876;4.246;2022-10-16T00:10:28;1.85;;;0.50;;
23155;SDS011;11746;50.876;4.246;2022-10-16T00:12:54;3.03;;;0.47;;
23155;SDS011;11746;50.876;4.246;2022-10-16T00:15:21;1.45;;;0.60;;
23155;SDS011;11746;50.876;4.246;2022-10-16T00:17:47;2.00;;;0.68;;
23155;SDS011;11746;50.876;4.246;2022-10-16T00:20:13;1.33;;;0.50;;
23155;SDS011;11746;50.876;4.246;2022-10-16T00:22:39;2.50;;;0.70;;
23155;SDS011;11746;50.876;4.246;2022-10-16T00:25:05;1.13;;;0.63;;
23155;SDS011;11746;50.876;4.246;2022-10-16T00:27:32;0.80;;;0.50;;
23155;SDS011;11746;50.876;4.246;2022-10-16T00:30:00;3.03;;;0.85;;
23155;SDS011;11746;50.876;4.246;2022-10-16T00:32:25;1.55;;;0.82;;
23155;SDS011;11746;50.876;4.246;2022-10-16T00:34:51;1.08;;;0.73;;
23155;SDS011;11746;50.876;4.246;2022-10-16T00:37:20;3.90;;;0.90;;
23155;SDS011;11746;50.876;4.246;2022-10-16T00:39:46;2.08;;;0.68;;
23155;SDS011;11746;50.876;4.246;2022-10-16T00:42:15;3.13;;;0.60;;
23155;SDS011;11746;50.876;4.246;2022-10-16T00:44:44;1.92;;;1.10;;
23155;SDS011;11746;50.876;4.246;2022-10-16T00:49:51;2.25;;;0.98;;
23155;SDS011;11746;50.876;4.246;2022-10-16T00:52:21;1.27;;;0.80;;
23155;SDS011;11746;50.876;4.246;2022-10-16T00:54:49;1.73;;;0.98;;
23155;SDS011;11746;50.876;4.246;2022-10-16T00:57:16;3.45;;;0.95;;
23155;SDS011;11746;50.876;4.246;2022-10-16T00:59:42;2.45;;;0.90;;
23155;SDS011;11746;50.876;4.246;2022-10-16T01:02:12;2.08;;;0.90;;
23155;SDS011;11746;50.876;4.246;2022-10-16T01:04:42;1.83;;;0.98;;
23155;SDS011;11746;50.876;4.246;2022-10-16T01:15:21;1.50;;;1.10;;
23155;SDS011;11746;50.876;4.246;2022-10-16T01:20:29;1.90;;;1.08;;
23155;SDS011;11746;50.876;4.246;2022-10-16T01:23:07;2.35;;;1.15;;
23155;SDS011;11746;50.876;4.246;2022-10-16T01:28:17;2.75;;;1.15;;
23155;SDS011;11746;50.876;4.246;2022-10-16T01:30:47;2.10;;;1.00;;
23155;SDS011;11746;50.876;4.246;2022-10-16T01:35:55;2.63;;;1.30;;
23155;SDS011;11746;50.876;4.246;2022-10-16T01:38:36;2.47;;;1.10;;
23155;SDS011;11746;50.876;4.246;2022-10-16T01:41:09;1.70;;;0.93;;
23155;SDS011;11746;50.876;4.246;2022-10-16T01:43:49;2.50;;;1.13;;
23155;SDS011;11746;50.876;4.246;2022-10-16T01:46:36;3.00;;;1.20;;
23155;SDS011;11746;50.876;4.246;2022-10-16T01:49:03;1.30;;;0.98;;
23155;SDS011;11746;50.876;4.246;2022-10-16T01:51:31;2.60;;;1.17;;
23155;SDS011;11746;50.876;4.246;2022-10-16T01:54:00;1.48;;;1.00;;
23155;SDS011;11746;50.876;4.246;2022-10-16T01:56:27;3.45;;;1.05;;
23155;SDS011;11746;50.876;4.246;2022-10-16T01:59:04;2.40;;;1.20;;
23155;SDS011;11746;50.876;4.246;2022-10-16T02:01:41;1.67;;;1.02;;
23155;SDS011;11746;50.876;4.246;2022-10-16T02:04:15;3.20;;;1.20;;
23155;SDS011;11746;50.876;4.246;2022-10-16T02:06:46;2.78;;;1.33;;
23155;SDS011;11746;50.876;4.246;2022-10-16T02:09:12;2.95;;;1.00;;
23155;SDS011;11746;50.876;4.246;2022-10-16T02:11:38;1.92;;;1.20;;
23155;SDS011;11746;50.876;4.246;2022-10-16T02:14:04;2.95;;;1.20;;
23155;SDS011;11746;50.876;4.246;2022-10-16T02:16:41;4.60;;;1.20;;
23155;SDS011;11746;50.876;4.246;2022-10-16T02:19:09;3.40;;;1.35;;
23155;SDS011;11746;50.876;4.246;2022-10-16T02:21:39;3.65;;;1.38;;
23155;SDS011;11746;50.876;4.246;2022-10-16T02:24:24;3.03;;;1.65;;
23155;SDS011;11746;50.876;4.246;2022-10-16T02:27:16;3.15;;;1.30;;
23155;SDS011;11746;50.876;4.246;2022-10-16T02:30:02;3.40;;;1.67;;
23155;SDS011;11746;50.876;4.246;2022-10-16T02:32:41;1.77;;;1.20;;
23155;SDS011;11746;50.876;4.246;2022-10-16T02:35:09;6.30;;;1.33;;
23155;SDS011;11746;50.876;4.246;2022-10-16T02:37:36;2.80;;;1.50;;
23155;SDS011;11746;50.876;4.246;2022-10-16T02:40:04;4.60;;;1.10;;
23155;SDS011;11746;50.876;4.246;2022-10-16T02:42:35;3.13;;;1.10;;
23155;SDS011;11746;50.876;4.246;2022-10-16T02:45:02;5.60;;;1.58;;
23155;SDS011;11746;50.876;4.246;2022-10-16T02:47:30;2.97;;;1.00;;
23155;SDS011;11746;50.876;4.246;2022-10-16T02:49:56;2.78;;;1.50;;
23155;SDS011;11746;50.876;4.246;2022-10-16T02:52:21;3.95;;;1.63;;
23155;SDS011;11746;50.876;4.246;2022-10-16T02:54:47;3.05;;;1.08;;
23155;SDS011;11746;50.876;4.246;2022-10-16T02:57:13;2.38;;;1.20;;
23155;SDS011;11746;50.876;4.246;2022-10-16T02:59:40;2.70;;;1.30;;
23155;SDS011;11746;50.876;4.246;2022-10-16T03:02:06;2.60;;;1.30;;
23155;SDS011;11746;50.876;4.246;2022-10-16T03:04:32;7.28;;;1.30;;
23155;SDS011;11746;50.876;4.246;2022-10-16T03:06:58;2.78;;;1.40;;
23155;SDS011;11746;50.876;4.246;2022-10-16T03:09:24;2.45;;;1.20;;
23155;SDS011;11746;50.876;4.246;2022-10-16T03:11:50;3.20;;;1.40;;
23155;SDS011;11746;50.876;4.246;2022-10-16T03:14:17;1.90;;;1.40;;
23155;SDS011;11746;50.876;4.246;2022-10-16T03:16:43;4.40;;;1.20;;
23155;SDS011;11746;50.876;4.246;2022-10-16T03:19:10;3.00;;;1.13;;
23155;SDS011;11746;50.876;4.246;2022-10-16T03:21:36;2.28;;;1.40;;
23155;SDS011;11746;50.876;4.246;2022-10-16T03:24:02;3.42;;;1.40;;
23155;SDS011;11746;50.876;4.246;2022-10-16T03:26:28;2.55;;;1.15;;
23155;SDS011;11746;50.876;4.246;2022-10-16T03:28:54;3.17;;;1.67;;
23155;SDS011;11746;50.876;4.246;2022-10-16T03:31:20;2.53;;;1.45;;
23155;SDS011;11746;50.876;4.246;2022-10-16T03:33:45;2.92;;;1.40;;
23155;SDS011;11746;50.876;4.246;2022-10-16T03:36:11;3.97;;;1.35;;
23155;SDS011;11746;50.876;4.246;2022-10-16T03:38:37;2.05;;;1.30;;
23155;SDS011;11746;50.876;4.246;2022-10-16T03:41:03;2.92;;;1.38;;
23155;SDS011;11746;50.876;4.246;2022-10-16T03:43:29;2.97;;;1.40;;
23155;SDS011;11746;50.876;4.246;2022-10-16T03:45:55;3.88;;;1.60;;
23155;SDS011;11746;50.876;4.246;2022-10-16T03:48:21;5.00;;;1.33;;
23155;SDS011;11746;50.876;4.246;2022-10-16T03:50:47;2.22;;;1.40;;
23155;SDS011;11746;50.876;4.246;2022-10-16T03:53:13;5.15;;;1.45;;
23155;SDS011;11746;50.876;4.246;2022-10-16T03:55:43;3.42;;;1.70;;
23155;SDS011;11746;50.876;4.246;2022-10-16T03:58:10;3.30;;;1.58;;
23155;SDS011;11746;50.876;4.246;2022-10-16T04:00:40;2.72;;;1.50;;
23155;SDS011;11746;50.876;4.246;2022-10-16T04:03:06;4.72;;;1.60;;
23155;SDS011;11746;50.876;4.246;2022-10-16T04:05:32;2.70;;;1.80;;
23155;SDS011;11746;50.876;4.246;2022-10-16T04:07:58;4.72;;;1.60;;
23155;SDS011;11746;50.876;4.246;2022-10-16T04:10:24;3.55;;;1.73;;
23155;SDS011;11746;50.876;4.246;2022-10-16T04:12:51;1.95;;;1.70;;
23155;SDS011;11746;50.876;4.246;2022-10-16T04:15:19;4.28;;;1.70;;
23155;SDS011;11746;50.876;4.246;2022-10-16T04:17:45;2.75;;;1.67;;
23155;SDS011;11746;50.876;4.246;2022-10-16T04:20:12;3.35;;;1.55;;
23155;SDS011;11746;50.876;4.246;2022-10-16T04:22:38;3.97;;;1.70;;
23155;SDS011;11746;50.876;4.246;2022-10-16T04:25:04;3.08;;;1.50;;
23155;SDS011;11746;50.876;4.246;2022-10-16T04:27:30;4.00;;;1.40;;
23155;SDS011;11746;50.876;4.246;2022-10-16T04:29:59;4.25;;;1.80;;
23155;SDS011;11746;50.876;4.246;2022-10-16T04:32:26;4.00;;;1.60;;
23155;SDS011;11746;50.876;4.246;2022-10-16T04:34:53;3.88;;;1.40;;
23155;SDS011;11746;50.876;4.246;2022-10-16T04:37:23;2.05;;;1.48;;
23155;SDS011;11746;50.876;4.246;2022-10-16T04:39:50;2.40;;;1.58;;
23155;SDS011;11746;50.876;4.246;2022-10-16T04:42:17;5.28;;;1.65;;
23155;SDS011;11746;50.876;4.246;2022-10-16T04:44:43;3.40;;;1.65;;
23155;SDS011;11746;50.876;4.246;2022-10-16T04:47:10;2.40;;;1.50;;
23155;SDS011;11746;50.876;4.246;2022-10-16T04:49:35;3.78;;;1.50;;
23155;SDS011;11746;50.876;4.246;2022-10-16T04:52:01;3.35;;;1.40;;
23155;SDS011;11746;50.876;4.246;2022-10-16T04:54:28;2.35;;;1.38;;
23155;SDS011;11746;50.876;4.246;2022-10-16T04:56:55;2.72;;;1.45;;
23155;SDS011;11746;50.876;4.246;2022-10-16T04:59:22;4.15;;;2.08;;
23155;SDS011;11746;50.876;4.246;2022-10-16T05:01:48;4.00;;;1.50;;
23155;SDS011;11746;50.876;4.246;2022-10-16T05:04:15;2.53;;;1.33;;
23155;SDS011;11746;50.876;4.246;2022-10-16T05:06:42;3.72;;;1.70;;
23155;SDS011;11746;50.876;4.246;2022-10-16T05:09:09;2.90;;;1.60;;
23155;SDS011;11746;50.876;4.246;2022-10-16T05:11:35;5.82;;;1.85;;
23155;SDS011;11746;50.876;4.246;2022-10-16T05:14:02;4.93;;;1.65;;
23155;SDS011;11746;50.876;4.246;2022-10-16T05:16:28;5.13;;;1.60;;
23155;SDS011;11746;50.876;4.246;2022-10-16T05:18:55;3.22;;;1.90;;
23155;SDS011;11746;50.876;4.246;2022-10-16T05:21:21;3.13;;;1.50;;
23155;SDS011;11746;50.876;4.246;2022-10-16T05:23:48;2.40;;;1.60;;
23155;SDS011;11746;50.876;4.246;2022-10-16T05:26:15;4.90;;;1.80;;
23155;SDS011;11746;50.876;4.246;2022-10-16T05:28:41;3.83;;;1.70;;
23155;SDS011;11746;50.876;4.246;2022-10-16T05:31:09;5.35;;;1.90;;
23155;SDS011;11746;50.876;4.246;2022-10-16T05:33:35;4.72;;;1.58;;
23155;SDS011;11746;50.876;4.246;2022-10-16T05:36:02;2.22;;;1.77;;
23155;SDS011;11746;50.876;4.246;2022-10-16T05:38:30;4.88;;;1.90;;
23155;SDS011;11746;50.876;4.246;2022-10-16T05:40:56;5.20;;;2.22;;
23155;SDS011;11746;50.876;4.246;2022-10-16T05:43:22;4.32;;;1.85;;
23155;SDS011;11746;50.876;4.246;2022-10-16T05:45:57;3.53;;;1.88;;
23155;SDS011;11746;50.876;4.246;2022-10-16T05:48:28;6.00;;;1.80;;
23155;SDS011;11746;50.876;4.246;2022-10-16T05:50:58;3.97;;;1.80;;
23155;SDS011;11746;50.876;4.246;2022-10-16T05:53:29;3.43;;;1.80;;
23155;SDS011;11746;50.876;4.246;2022-10-16T05:55:56;5.18;;;1.83;;
23155;SDS011;11746;50.876;4.246;2022-10-16T05:58:22;5.25;;;1.75;;
23155;SDS011;11746;50.876;4.246;2022-10-16T06:00:53;3.97;;;1.92;;
23155;SDS011;11746;50.876;4.246;2022-10-16T06:03:20;5.60;;;2.00;;
23155;SDS011;11746;50.876;4.246;2022-10-16T06:05:47;5.00;;;2.00;;
23155;SDS011;11746;50.876;4.246;2022-10-16T06:08:13;3.75;;;1.90;;
23155;SDS011;11746;50.876;4.246;2022-10-16T06:10:39;2.88;;;2.00;;
23155;SDS011;11746;50.876;4.246;2022-10-16T06:13:05;7.90;;;1.95;;
23155;SDS011;11746;50.876;4.246;2022-10-16T06:15:30;4.53;;;2.00;;
23155;SDS011;11746;50.876;4.246;2022-10-16T06:17:56;3.95;;;2.00;;
23155;SDS011;11746;50.876;4.246;2022-10-16T06:20:22;4.15;;;2.22;;
23155;SDS011;11746;50.876;4.246;2022-10-16T06:22:48;5.30;;;2.30;;
23155;SDS011;11746;50.876;4.246;2022-10-16T06:25:14;4.20;;;2.00;;
23155;SDS011;11746;50.876;4.246;2022-10-16T06:27:41;4.03;;;1.88;;
23155;SDS011;11746;50.876;4.246;2022-10-16T06:30:07;4.90;;;2.30;;
23155;SDS011;11746;50.876;4.246;2022-10-16T06:32:33;4.03;;;1.77;;
23155;SDS011;11746;50.876;4.246;2022-10-16T06:35:00;4.30;;;1.83;;
23155;SDS011;11746;50.876;4.246;2022-10-16T06:37:27;3.13;;;2.00;;
23155;SDS011;11746;50.876;4.246;2022-10-16T06:39:53;2.95;;;1.95;;
23155;SDS011;11746;50.876;4.246;2022-10-16T06:42:19;4.25;;;2.20;;
23155;SDS011;11746;50.876;4.246;2022-10-16T06:44:45;4.55;;;2.10;;
23155;SDS011;11746;50.876;4.246;2022-10-16T06:47:10;4.60;;;2.00;;
23155;SDS011;11746;50.876;4.246;2022-10-16T06:49:36;4.43;;;2.00;;
23155;SDS011;11746;50.876;4.246;2022-10-16T06:52:02;3.10;;;2.60;;
23155;SDS011;11746;50.876;4.246;2022-10-16T06:54:28;5.10;;;2.17;;
23155;SDS011;11746;50.876;4.246;2022-10-16T06:56:54;4.40;;;2.00;;
23155;SDS011;11746;50.876;4.246;2022-10-16T06:59:20;3.63;;;2.00;;
23155;SDS011;11746;50.876;4.246;2022-10-16T07:01:47;3.28;;;1.80;;
23155;SDS011;11746;50.876;4.246;2022-10-16T07:04:13;4.30;;;1.63;;
23155;SDS011;11746;50.876;4.246;2022-10-16T07:06:39;3.92;;;2.15;;
23155;SDS011;11746;50.876;4.246;2022-10-16T07:09:06;5.18;;;2.20;;
23155;SDS011;11746;50.876;4.246;2022-10-16T07:11:39;3.58;;;1.73;;
23155;SDS011;11746;50.876;4.246;2022-10-16T07:14:16;4.32;;;1.98;;
23155;SDS011;11746;50.876;4.246;2022-10-16T07:16:43;2.92;;;1.90;;
23155;SDS011;11746;50.876;4.246;2022-10-16T07:19:10;3.25;;;2.15;;
23155;SDS011;11746;50.876;4.246;2022-10-16T07:21:38;4.13;;;1.77;;
23155;SDS011;11746;50.876;4.246;2022-10-16T07:24:05;3.22;;;1.70;;
23155;SDS011;11746;50.876;4.246;2022-10-16T07:26:34;4.00;;;2.10;;
23155;SDS011;11746;50.876;4.246;2022-10-16T07:29:01;4.57;;;2.50;;
23155;SDS011;11746;50.876;4.246;2022-10-16T07:31:27;5.93;;;1.70;;
23155;SDS011;11746;50.876;4.246;2022-10-16T07:33:53;5.43;;;2.05;;
23155;SDS011;11746;50.876;4.246;2022-10-16T07:36:23;4.28;;;1.80;;
23155;SDS011;11746;50.876;4.246;2022-10-16T07:38:52;5.15;;;1.95;;
23155;SDS011;11746;50.876;4.246;2022-10-16T07:41:19;5.15;;;2.17;;
23155;SDS011;11746;50.876;4.246;2022-10-16T07:43:49;5.35;;;2.10;;
23155;SDS011;11746;50.876;4.246;2022-10-16T07:46:18;4.30;;;1.73;;
23155;SDS011;11746;50.876;4.246;2022-10-16T07:48:45;4.25;;;2.10;;
23155;SDS011;11746;50.876;4.246;2022-10-16T07:51:13;4.13;;;1.83;;
23155;SDS011;11746;50.876;4.246;2022-10-16T07:53:42;3.15;;;1.55;;
23155;SDS011;11746;50.876;4.246;2022-10-16T07:56:09;3.33;;;1.95;;
23155;SDS011;11746;50.876;4.246;2022-10-16T07:58:36;3.70;;;1.70;;
23155;SDS011;11746;50.876;4.246;2022-10-16T08:01:04;2.75;;;1.77;;
23155;SDS011;11746;50.876;4.246;2022-10-16T08:03:35;4.47;;;1.60;;
23155;SDS011;11746;50.876;4.246;2022-10-16T08:06:02;2.75;;;1.67;;
23155;SDS011;11746;50.876;4.246;2022-10-16T08:08:29;2.47;;;1.40;;
23155;SDS011;11746;50.876;4.246;2022-10-16T08:10:56;2.63;;;1.60;;
23155;SDS011;11746;50.876;4.246;2022-10-16T08:13:22;2.97;;;1.40;;
23155;SDS011;11746;50.876;4.246;2022-10-16T08:15:49;3.97;;;2.00;;
23155;SDS011;11746;50.876;4.246;2022-10-16T08:18:16;4.93;;;1.80;;
23155;SDS011;11746;50.876;4.246;2022-10-16T08:20:42;2.60;;;1.73;;
23155;SDS011;11746;50.876;4.246;2022-10-16T08:23:09;7.32;;;1.45;;
23155;SDS011;11746;50.876;4.246;2022-10-16T08:25:37;3.97;;;1.40;;
23155;SDS011;11746;50.876;4.246;2022-10-16T08:28:04;5.70;;;1.60;;
23155;SDS011;11746;50.876;4.246;2022-10-16T08:30:31;6.05;;;1.35;;
23155;SDS011;11746;50.876;4.246;2022-10-16T08:32:58;2.83;;;1.38;;
23155;SDS011;11746;50.876;4.246;2022-10-16T08:35:24;5.22;;;1.88;;
23155;SDS011;11746;50.876;4.246;2022-10-16T08:37:51;4.32;;;1.13;;
23155;SDS011;11746;50.876;4.246;2022-10-16T08:40:28;3.83;;;1.40;;
23155;SDS011;11746;50.876;4.246;2022-10-16T08:45:29;3.65;;;1.38;;
23155;SDS011;11746;50.876;4.246;2022-10-16T08:48:20;5.00;;;1.35;;
23155;SDS011;11746;50.876;4.246;2022-10-16T08:50:55;3.13;;;0.88;;
23155;SDS011;11746;50.876;4.246;2022-10-16T08:53:26;2.47;;;1.60;;
23155;SDS011;11746;50.876;4.246;2022-10-16T08:55:59;3.72;;;1.10;;
23155;SDS011;11746;50.876;4.246;2022-10-16T08:58:29;5.25;;;1.40;;
23155;SDS011;11746;50.876;4.246;2022-10-16T09:00:57;6.15;;;1.10;;
23155;SDS011;11746;50.876;4.246;2022-10-16T09:03:31;2.92;;;1.33;;
23155;SDS011;11746;50.876;4.246;2022-10-16T09:06:17;3.55;;;1.20;;
23155;SDS011;11746;50.876;4.246;2022-10-16T09:12:19;4.45;;;1.20;;
23155;SDS011;11746;50.876;4.246;2022-10-16T09:15:16;3.15;;;0.85;;
23155;SDS011;11746;50.876;4.246;2022-10-16T09:17:57;5.00;;;1.20;;
23155;SDS011;11746;50.876;4.246;2022-10-16T09:20:59;6.60;;;1.25;;
23155;SDS011;11746;50.876;4.246;2022-10-16T09:23:38;2.22;;;0.98;;
23155;SDS011;11746;50.876;4.246;2022-10-16T09:26:05;6.75;;;1.27;;
23155;SDS011;11746;50.876;4.246;2022-10-16T09:28:36;4.97;;;1.10;;
23155;SDS011;11746;50.876;4.246;2022-10-16T09:31:02;5.63;;;1.00;;
23155;SDS011;11746;50.876;4.246;2022-10-16T09:33:37;6.97;;;1.10;;
23155;SDS011;11746;50.876;4.246;2022-10-16T09:36:05;3.08;;;1.10;;
23155;SDS011;11746;50.876;4.246;2022-10-16T09:38:32;6.28;;;1.02;;
23155;SDS011;11746;50.876;4.246;2022-10-16T09:41:01;5.15;;;1.00;;
23155;SDS011;11746;50.876;4.246;2022-10-16T09:43:40;5.35;;;1.10;;
23155;SDS011;11746;50.876;4.246;2022-10-16T09:46:27;4.47;;;1.15;;
23155;SDS011;11746;50.876;4.246;2022-10-16T09:49:00;4.97;;;1.20;;
23155;SDS011;11746;50.876;4.246;2022-10-16T09:51:33;7.10;;;1.23;;
23155;SDS011;11746;50.876;4.246;2022-10-16T09:56:36;4.88;;;1.10;;
23155;SDS011;11746;50.876;4.246;2022-10-16T09:59:11;4.70;;;0.90;;
23155;SDS011;11746;50.876;4.246;2022-10-16T10:01:49;3.90;;;1.10;;
23155;SDS011;11746;50.876;4.246;2022-10-16T10:04:20;3.78;;;1.00;;
23155;SDS011;11746;50.876;4.246;2022-10-16T10:06:51;4.90;;;1.00;;
23155;SDS011;11746;50.876;4.246;2022-10-16T10:09:20;2.20;;;0.90;;
23155;SDS011;11746;50.876;4.246;2022-10-16T10:11:52;2.78;;;0.77;;
23155;SDS011;11746;50.876;4.246;2022-10-16T10:14:37;4.72;;;1.10;;
23155;SDS011;11746;50.876;4.246;2022-10-16T10:19:51;2.38;;;0.70;;
23155;SDS011;11746;50.876;4.246;2022-10-16T10:40:58;5.70;;;0.95;;
23155;SDS011;11746;50.876;4.246;2022-10-16T10:43:39;4.70;;;1.08;;
23155;SDS011;11746;50.876;4.246;2022-10-16T10:46:15;3.40;;;0.73;;
23155;SDS011;11746;50.876;4.246;2022-10-16T10:51:59;4.00;;;1.08;;
23155;SDS011;11746;50.876;4.246;2022-10-16T11:00:19;4.63;;;1.00;;
23155;SDS011;11746;50.876;4.246;2022-10-16T11:03:12;4.45;;;0.70;;
23155;SDS011;11746;50.876;4.246;2022-10-16T11:05:56;6.78;;;1.10;;
23155;SDS011;11746;50.876;4.246;2022-10-16T11:11:00;2.30;;;0.75;;
23155;SDS011;11746;50.876;4.246;2022-10-16T11:13:35;3.42;;;0.82;;
23155;SDS011;11746;50.876;4.246;2022-10-16T11:16:34;7.00;;;0.87;;
23155;SDS011;11746;50.876;4.246;2022-10-16T11:21:58;4.80;;;0.80;;
23155;SDS011;11746;50.876;4.246;2022-10-16T11:27:26;3.90;;;0.90;;
23155;SDS011;11746;50.876;4.246;2022-10-16T11:30:12;2.63;;;0.60;;
23155;SDS011;11746;50.876;4.246;2022-10-16T11:35:53;3.80;;;0.70;;
23155;SDS011;11746;50.876;4.246;2022-10-16T11:46:27;4.25;;;0.70;;
23155;SDS011;11746;50.876;4.246;2022-10-16T11:48:58;5.05;;;0.80;;
23155;SDS011;11746;50.876;4.246;2022-10-16T11:54:35;3.47;;;0.70;;
23155;SDS011;11746;50.876;4.246;2022-10-16T11:57:12;2.45;;;0.60;;
23155;SDS011;11746;50.876;4.246;2022-10-16T11:59:48;4.05;;;0.60;;
23155;SDS011;11746;50.876;4.246;2022-10-16T12:07:39;4.00;;;0.60;;
23155;SDS011;11746;50.876;4.246;2022-10-16T12:10:25;2.25;;;0.50;;
23155;SDS011;11746;50.876;4.246;2022-10-16T12:12:53;4.75;;;0.60;;
23155;SDS011;11746;50.876;4.246;2022-10-16T12:15:21;1.95;;;0.50;;
23155;SDS011;11746;50.876;4.246;2022-10-16T12:17:57;1.98;;;0.75;;
23155;SDS011;11746;50.876;4.246;2022-10-16T12:20:25;2.67;;;0.60;;
23155;SDS011;11746;50.876;4.246;2022-10-16T12:22:58;3.10;;;0.68;;
23155;SDS011;11746;50.876;4.246;2022-10-16T12:25:33;2.30;;;0.70;;
23155;SDS011;11746;50.876;4.246;2022-10-16T12:28:18;4.00;;;0.57;;
23155;SDS011;11746;50.876;4.246;2022-10-16T12:31:20;2.97;;;0.63;;
23155;SDS011;11746;50.876;4.246;2022-10-16T12:33:56;3.63;;;0.90;;
23155;SDS011;11746;50.876;4.246;2022-10-16T12:36:30;4.55;;;0.52;;
23155;SDS011;11746;50.876;4.246;2022-10-16T12:38:59;2.42;;;0.77;;
23155;SDS011;11746;50.876;4.246;2022-10-16T12:41:30;4.00;;;0.73;;
23155;SDS011;11746;50.876;4.246;2022-10-16T12:43:57;3.08;;;0.73;;
23155;SDS011;11746;50.876;4.246;2022-10-16T12:46:37;1.95;;;0.60;;
23155;SDS011;11746;50.876;4.246;2022-10-16T12:49:15;4.03;;;0.73;;
23155;SDS011;11746;50.876;4.246;2022-10-16T12:54:19;3.80;;;0.65;;
23155;SDS011;11746;50.876;4.246;2022-10-16T13:02:47;1.27;;;0.30;;
23155;SDS011;11746;50.876;4.246;2022-10-16T13:17:30;3.60;;;0.70;;
23155;SDS011;11746;50.876;4.246;2022-10-16T13:22:40;4.97;;;0.68;;
23155;SDS011;11746;50.876;4.246;2022-10-16T13:28:02;3.25;;;0.88;;
23155;SDS011;11746;50.876;4.246;2022-10-16T13:30:41;1.27;;;0.60;;
23155;SDS011;11746;50.876;4.246;2022-10-16T13:33:14;1.92;;;0.50;;
23155;SDS011;11746;50.876;4.246;2022-10-16T13:36:21;0.85;;;0.47;;
23155;SDS011;11746;50.876;4.246;2022-10-16T13:38:48;3.50;;;0.50;;
23155;SDS011;11746;50.876;4.246;2022-10-16T13:41:38;2.85;;;0.70;;
23155;SDS011;11746;50.876;4.246;2022-10-16T13:44:04;2.47;;;0.60;;
23155;SDS011;11746;50.876;4.246;2022-10-16T13:46:37;4.07;;;0.80;;
23155;SDS011;11746;50.876;4.246;2022-10-16T13:49:03;1.92;;;0.80;;
23155;SDS011;11746;50.876;4.246;2022-10-16T13:51:31;1.33;;;0.50;;
23155;SDS011;11746;50.876;4.246;2022-10-16T13:53:58;3.55;;;0.70;;
23155;SDS011;11746;50.876;4.246;2022-10-16T13:56:25;2.75;;;0.50;;
23155;SDS011;11746;50.876;4.246;2022-10-16T13:59:05;3.88;;;0.73;;
23155;SDS011;11746;50.876;4.246;2022-10-16T14:01:47;3.30;;;0.55;;
23155;SDS011;11746;50.876;4.246;2022-10-16T14:04:13;5.13;;;0.90;;
23155;SDS011;11746;50.876;4.246;2022-10-16T14:06:40;3.60;;;0.63;;
23155;SDS011;11746;50.876;4.246;2022-10-16T14:09:28;4.97;;;0.65;;
23155;SDS011;11746;50.876;4.246;2022-10-16T14:11:59;4.70;;;0.90;;
23155;SDS011;11746;50.876;4.246;2022-10-16T14:15:02;5.30;;;1.42;;
23155;SDS011;11746;50.876;4.246;2022-10-16T14:17:26;2.45;;;0.60;;
23155;SDS011;11746;50.876;4.246;2022-10-16T14:19:56;2.92;;;0.70;;
23155;SDS011;11746;50.876;4.246;2022-10-16T14:22:35;2.13;;;0.60;;
23155;SDS011;11746;50.876;4.246;2022-10-16T14:28:13;3.47;;;1.08;;
23155;SDS011;11746;50.876;4.246;2022-10-16T14:30:52;3.83;;;0.90;;
23155;SDS011;11746;50.876;4.246;2022-10-16T14:33:32;5.15;;;1.15;;
23155;SDS011;11746;50.876;4.246;2022-10-16T14:36:33;3.25;;;0.70;;
23155;SDS011;11746;50.876;4.246;2022-10-16T14:38:56;4.18;;;1.35;;
23155;SDS011;11746;50.876;4.246;2022-10-16T14:41:46;3.17;;;0.60;;
23155;SDS011;11746;50.876;4.246;2022-10-16T14:44:17;2.90;;;0.88;;
23155;SDS011;11746;50.876;4.246;2022-10-16T14:46:44;5.13;;;1.02;;
23155;SDS011;11746;50.876;4.246;2022-10-16T14:51:38;5.95;;;1.08;;
23155;SDS011;11746;50.876;4.246;2022-10-16T14:54:10;2.60;;;0.93;;
23155;SDS011;11746;50.876;4.246;2022-10-16T14:56:45;1.48;;;0.50;;
23155;SDS011;11746;50.876;4.246;2022-10-16T14:59:16;1.77;;;0.75;;
23155;SDS011;11746;50.876;4.246;2022-10-16T15:02:35;1.92;;;0.80;;
23155;SDS011;11746;50.876;4.246;2022-10-16T15:04:57;4.82;;;1.13;;
23155;SDS011;11746;50.876;4.246;2022-10-16T15:07:26;4.57;;;1.35;;
23155;SDS011;11746;50.876;4.246;2022-10-16T15:09:53;4.97;;;1.60;;
23155;SDS011;11746;50.876;4.246;2022-10-16T15:12:19;3.88;;;1.30;;
23155;SDS011;11746;50.876;4.246;2022-10-16T15:14:45;4.72;;;1.70;;
23155;SDS011;11746;50.876;4.246;2022-10-16T15:17:12;5.72;;;1.40;;
23155;SDS011;11746;50.876;4.246;2022-10-16T15:19:39;4.70;;;1.60;;
23155;SDS011;11746;50.876;4.246;2022-10-16T15:22:04;2.75;;;1.30;;
23155;SDS011;11746;50.876;4.246;2022-10-16T15:24:30;8.02;;;1.70;;
23155;SDS011;11746;50.876;4.246;2022-10-16T15:26:56;3.80;;;1.27;;
23155;SDS011;11746;50.876;4.246;2022-10-16T15:29:22;4.07;;;0.88;;
23155;SDS011;11746;50.876;4.246;2022-10-16T15:31:49;3.15;;;0.98;;
23155;SDS011;11746;50.876;4.246;2022-10-16T15:34:15;2.45;;;1.17;;
23155;SDS011;11746;50.876;4.246;2022-10-16T15:36:43;3.83;;;1.17;;
23155;SDS011;11746;50.876;4.246;2022-10-16T15:39:13;3.60;;;0.80;;
23155;SDS011;11746;50.876;4.246;2022-10-16T15:41:40;3.60;;;1.10;;
23155;SDS011;11746;50.876;4.246;2022-10-16T15:44:07;3.65;;;0.90;;
23155;SDS011;11746;50.876;4.246;2022-10-16T15:46:33;4.00;;;1.40;;
23155;SDS011;11746;50.876;4.246;2022-10-16T15:49:01;4.35;;;1.40;;
23155;SDS011;11746;50.876;4.246;2022-10-16T15:51:27;4.43;;;1.35;;
23155;SDS011;11746;50.876;4.246;2022-10-16T15:53:55;3.83;;;1.30;;
23155;SDS011;11746;50.876;4.246;2022-10-16T15:56:22;5.30;;;1.60;;
23155;SDS011;11746;50.876;4.246;2022-10-16T15:58:50;2.72;;;1.13;;
23155;SDS011;11746;50.876;4.246;2022-10-16T16:01:20;4.05;;;1.27;;
23155;SDS011;11746;50.876;4.246;2022-10-16T16:03:47;5.07;;;1.25;;
23155;SDS011;11746;50.876;4.246;2022-10-16T16:06:17;2.72;;;1.17;;
23155;SDS011;11746;50.876;4.246;2022-10-16T16:08:44;4.90;;;1.50;;
23155;SDS011;11746;50.876;4.246;2022-10-16T16:11:11;3.80;;;1.42;;
23155;SDS011;11746;50.876;4.246;2022-10-16T16:13:38;3.88;;;1.77;;
23155;SDS011;11746;50.876;4.246;2022-10-16T16:16:06;5.38;;;1.58;;
23155;SDS011;11746;50.876;4.246;2022-10-16T16:18:33;3.20;;;1.45;;
23155;SDS011;11746;50.876;4.246;2022-10-16T16:20:59;6.10;;;1.80;;
23155;SDS011;11746;50.876;4.246;2022-10-16T16:23:25;4.20;;;1.50;;
23155;SDS011;11746;50.876;4.246;2022-10-16T16:28:51;5.10;;;1.75;;
23155;SDS011;11746;50.876;4.246;2022-10-16T16:31:18;6.22;;;2.13;;
23155;SDS011;11746;50.876;4.246;2022-10-16T16:33:45;6.03;;;2.40;;
23155;SDS011;11746;50.876;4.246;2022-10-16T16:36:11;5.50;;;2.03;;
23155;SDS011;11746;50.876;4.246;2022-10-16T16:38:38;6.00;;;1.85;;
23155;SDS011;11746;50.876;4.246;2022-10-16T16:41:14;6.13;;;2.50;;
23155;SDS011;11746;50.876;4.246;2022-10-16T16:43:41;6.40;;;2.30;;
23155;SDS011;11746;50.876;4.246;2022-10-16T16:46:08;6.25;;;2.88;;
23155;SDS011;11746;50.876;4.246;2022-10-16T16:48:36;5.28;;;1.90;;
23155;SDS011;11746;50.876;4.246;2022-10-16T16:51:04;4.63;;;1.83;;
23155;SDS011;11746;50.876;4.246;2022-10-16T16:53:33;9.23;;;3.15;;
23155;SDS011;11746;50.876;4.246;2022-10-16T16:56:03;10.07;;;2.78;;
23155;SDS011;11746;50.876;4.246;2022-10-16T16:58:31;6.90;;;2.90;;
23155;SDS011;11746;50.876;4.246;2022-10-16T17:00:57;8.25;;;3.45;;
23155;SDS011;11746;50.876;4.246;2022-10-16T17:03:26;4.53;;;2.75;;
23155;SDS011;11746;50.876;4.246;2022-10-16T17:06:03;4.20;;;2.50;;